Time;durP1;ratioP1;P1;durP2;ratioP2;P2;SDS_P1;SDS_P2;PMS_P1;PMS_P2;Temp;Humidity;BMP_temperature;BMP_pressure;BME280_temperature;BME280_humidity;BME280_pressure;Samples;Min_cycle;Max_cycle;Signal;HPM_P1;HPM_P2
2023/10/11 00:01:40;1284792.00;4.28;2244.30;0.00;0.00;0.62;;;;;19.50;1.00;;;;;;1910250;41;3580;-88
2023/10/11 00:06:49;213071.00;0.71;368.42;0.00;0.00;0.62;;;;;19.60;1.00;;;;;;799547;59;2366;-89
2023/10/11 00:09:19;304022.00;1.01;524.83;21320.00;0.07;37.56;;;;;19.80;1.00;;;;;;2268006;61;1325;-90
2023/10/11 00:16:54;1115578.00;3.72;1938.30;0.00;0.00;0.62;;;;;19.70;1.00;;;;;;1549972;41;3336;-91
2023/10/11 00:22:00;258252.00;0.86;446.14;0.00;0.00;0.62;;;;;19.20;1.00;;;;;;2396946;40;1996;-89
2023/10/11 00:26:57;1261375.00;4.20;2201.59;0.00;0.00;0.62;;;;;18.70;1.00;;;;;;1895262;41;3525;-90
2023/10/11 00:31:59;816522.00;2.72;1409.95;35856.00;0.12;62.72;;;;;18.60;1.00;;;;;;2270351;61;1420;-89
2023/10/11 00:37:00;739325.00;2.46;1275.50;0.00;0.00;0.62;;;;;19.30;1.00;;;;;;2269844;61;1309;-87
2023/10/11 00:42:03;456975.00;1.52;787.78;15845.00;0.05;28.07;;;;;19.40;1.00;;;;;;2358857;41;1790;-88
2023/10/11 00:44:42;285450.00;0.95;492.91;0.00;0.00;0.62;;;;;19.20;1.00;;;;;;2272261;61;1624;-87
2023/10/11 00:52:17;514208.00;1.71;886.29;46803.00;0.16;81.66;;;;;18.60;1.00;;;;;;2316358;56;2138;-89
2023/10/11 00:57:15;864600.00;2.88;1494.03;0.00;0.00;0.62;;;;;18.00;1.00;;;;;;2266894;61;1353;-88
2023/10/11 00:59:44;342270.00;1.14;590.58;37652.00;0.13;65.83;;;;;17.80;1.00;;;;;;2261582;61;1294;-90
2023/10/11 01:09:56;157866.00;0.53;273.36;0.00;0.00;0.62;;;;;16.70;1.00;;;;;;1600160;41;2702;-87
2023/10/11 01:19:59;603507.00;2.01;1040.28;50226.00;0.17;87.58;;;;;17.90;1.00;;;;;;2275037;55;3651;-88
2023/10/11 01:22:28;110083.00;0.37;190.97;0.00;0.00;0.62;;;;;17.90;1.00;;;;;;2272333;61;1423;-86
2023/10/11 01:24:58;411717.00;1.37;709.95;24751.00;0.08;43.50;;;;;17.80;1.00;;;;;;2274421;55;3750;-86
2023/10/11 01:27:30;86851.00;0.29;150.87;0.00;0.00;0.62;;;;;17.50;1.00;;;;;;2272342;61;979;-87
2023/10/11 01:29:57;35189.00;0.12;61.56;0.00;0.00;0.62;;;;;17.20;1.00;;;;;;2272248;61;1265;-86
2023/10/11 01:32:24;363586.00;1.21;627.21;32712.00;0.11;57.28;;;;;16.70;1.00;;;;;;2272319;61;1366;-88
2023/10/11 01:34:51;339576.00;1.13;585.94;0.00;0.00;0.62;;;;;16.50;1.00;;;;;;2272228;61;1996;-89
2023/10/11 01:37:19;168247.00;0.56;291.25;0.00;0.00;0.62;;;;;16.50;1.00;;;;;;2278309;55;3789;-88
2023/10/11 01:39:49;193612.00;0.65;334.93;14046.00;0.05;24.96;;;;;16.30;1.00;;;;;;2272398;61;1156;-88
2023/10/11 01:42:17;90553.00;0.30;157.26;0.00;0.00;0.62;;;;;16.40;1.00;;;;;;2279351;55;3832;-88
2023/10/11 01:44:44;388943.00;1.30;670.80;0.00;0.00;0.62;;;;;16.50;1.00;;;;;;2298842;56;3772;-89
2023/10/11 01:49:41;969781.00;3.23;1679.02;0.00;0.00;0.62;;;;;16.00;1.00;;;;;;1962163;41;3438;-88
2023/10/11 01:52:20;390636.00;1.30;673.71;0.00;0.00;0.62;;;;;15.90;1.00;;;;;;2272216;61;1260;-86
2023/10/11 01:57:18;661409.00;2.20;1140.38;11124.00;0.04;19.90;;;;;15.80;1.00;;;;;;2265547;61;1345;-87
2023/10/11 01:59:46;243440.00;0.81;420.67;20388.00;0.07;35.94;;;;;15.50;1.00;;;;;;2264210;61;989;-89
2023/10/11 02:02:15;187892.00;0.63;325.08;0.00;0.00;0.62;;;;;15.50;1.00;;;;;;2264157;61;1567;-88
2023/10/11 02:04:42;293623.00;0.98;506.96;0.00;0.00;0.62;;;;;15.60;1.00;;;;;;2264129;61;1634;-87
2023/10/11 02:07:09;117069.00;0.39;203.03;0.00;0.00;0.62;;;;;15.60;1.00;;;;;;2264088;61;1720;-87
2023/10/11 02:09:36;307045.00;1.02;530.03;0.00;0.00;0.62;;;;;15.90;1.00;;;;;;2271389;40;3596;-88
2023/10/11 02:12:09;251210.00;0.84;434.03;45344.00;0.15;79.13;;;;;15.70;1.00;;;;;;2272059;61;1259;-89
2023/10/11 02:17:08;1214812.00;4.05;2117.02;0.00;0.00;0.62;;;;;15.20;1.00;;;;;;2265569;61;1421;-89
2023/10/11 02:27:17;297858.00;0.99;514.24;0.00;0.00;0.62;;;;;15.60;1.00;;;;;;2273771;56;1786;-92
2023/10/11 02:29:47;142465.00;0.47;246.82;0.00;0.00;0.62;;;;;15.70;1.00;;;;;;2274094;55;3755;-90
2023/10/11 02:34:49;311410.00;1.04;537.53;79973.00;0.27;138.99;;;;;15.70;1.00;;;;;;2266050;61;1902;-88
2023/10/11 02:39:46;120046784.00;400.16;70081984.00;21020.00;0.07;37.04;;;;;15.70;1.00;;;;;;2269866;61;1420;-89
2023/10/11 02:42:19;346376.00;1.15;597.63;0.00;0.00;0.62;;;;;16.10;1.00;;;;;;2268168;61;1384;-88
2023/10/11 02:44:48;157089.00;0.52;272.02;0.00;0.00;0.62;;;;;16.20;1.00;;;;;;2268031;61;1325;-89
2023/10/11 02:49:46;780893.00;2.60;1347.82;0.00;0.00;0.62;;;;;15.50;1.00;;;;;;2296594;40;3631;-89
2023/10/11 03:02:13;645553.00;2.15;1112.94;165581.00;0.55;286.65;;;;;15.30;1.00;;;;;;2346505;41;3544;-89
2023/10/11 03:04:40;93994.00;0.31;163.20;0.00;0.00;0.62;;;;;15.20;1.00;;;;;;2272527;61;1616;-91
2023/10/11 03:07:12;308330.00;1.03;532.24;0.00;0.00;0.62;;;;;15.60;1.00;;;;;;2314627;55;3760;-88
2023/10/11 03:09:40;129185.00;0.43;223.92;0.00;0.00;0.62;;;;;15.70;1.00;;;;;;2272434;61;1030;-88
2023/10/11 03:12:18;158882.00;0.53;275.11;0.00;0.00;0.62;;;;;15.60;1.00;;;;;;2323768;40;3608;-87
2023/10/11 03:14:45;650108.00;2.17;1120.82;0.00;0.00;0.62;;;;;15.70;1.00;;;;;;2297228;56;3930;-88
2023/10/11 03:19:43;692080.00;2.31;1193.51;0.00;0.00;0.62;;;;;16.20;1.00;;;;;;2265632;61;1332;-87
2023/10/11 03:24:40;855518.00;2.85;1478.13;0.00;0.00;0.62;;;;;17.00;1.00;;;;;;2270060;61;1434;-88
2023/10/11 03:27:10;184576.00;0.62;319.37;7216.00;0.02;13.13;;;;;17.40;1.00;;;;;;2268381;61;1823;-88
2023/10/11 03:29:37;0.00;0.00;0.62;0.00;0.00;0.62;;;;;17.80;1.00;;;;;;2331303;40;3606;-88
2023/10/11 03:32:04;271388.00;0.90;468.73;0.00;0.00;0.62;;;;;17.80;1.00;;;;;;2268348;61;1340;-87
2023/10/11 03:39:39;385578.00;1.29;665.01;0.00;0.00;0.62;;;;;18.60;1.00;;;;;;2332009;41;3565;-86
2023/10/11 03:42:14;510805.00;1.70;880.43;0.00;0.00;0.62;;;;;18.20;1.00;;;;;;2280157;40;3543;-87
2023/10/11 03:44:45;45253.00;0.15;78.98;0.00;0.00;0.62;;;;;17.90;1.00;;;;;;2272360;61;1880;-88
2023/10/11 03:52:19;673340.00;2.24;1161.04;0.00;0.00;0.62;;;;;17.00;1.00;;;;;;1982400;41;3526;-90
2023/10/11 03:54:47;158687.00;0.53;274.78;54447.00;0.18;94.88;;;;;17.10;1.00;;;;;;2272146;61;1911;-89
2023/10/11 04:02:23;415082.00;1.38;715.73;0.00;0.00;0.62;;;;;17.40;1.00;;;;;;2272568;40;3590;-87
2023/10/11 04:04:49;0.00;0.00;0.62;0.00;0.00;0.62;;;;;17.50;1.00;;;;;;2285042;55;3727;-89
2023/10/11 04:07:18;196735.00;0.66;340.30;0.00;0.00;0.62;;;;;17.80;1.00;;;;;;2272881;61;1638;-87
2023/10/11 04:09:46;9309.00;0.03;16.75;0.00;0.00;0.62;;;;;18.00;1.00;;;;;;2272875;61;1032;-87
2023/10/11 04:12:14;241822.00;0.81;417.89;15668.00;0.05;27.77;;;;;18.50;1.00;;;;;;2272900;61;1285;-88
2023/10/11 04:14:44;53151.00;0.18;92.64;0.00;0.00;0.62;;;;;18.60;1.00;;;;;;2272940;61;1938;-88
2023/10/11 04:17:25;53543.00;0.18;93.31;0.00;0.00;0.62;;;;;18.50;1.00;;;;;;2272913;61;1038;-89
2023/10/11 04:20:00;170543.00;0.57;295.20;23626.00;0.08;41.55;;;;;18.60;1.00;;;;;;2274602;55;3758;-88
2023/10/11 04:22:31;37775.00;0.13;66.04;0.00;0.00;0.62;;;;;18.50;1.00;;;;;;2272983;61;2054;-88
2023/10/11 04:25:06;41293.00;0.14;72.13;0.00;0.00;0.62;;;;;18.50;1.00;;;;;;2272941;61;1055;-88
2023/10/11 04:30:17;239401.00;0.80;413.72;25681.00;0.09;45.11;;;;;18.50;1.00;;;;;;2270239;61;1409;-86
2023/10/11 04:37:54;927027.00;3.09;1603.64;38266.00;0.13;66.89;;;;;17.80;1.00;;;;;;2270527;61;1416;-89
2023/10/11 04:43:05;826985.00;2.76;1428.23;134234.00;0.45;232.63;;;;;16.90;1.00;;;;;;2396018;41;2098;-89
2023/10/11 04:52:58;1448952.00;4.83;2547.43;30427.00;0.10;53.32;;;;;17.50;1.00;;;;;;1560732;55;3552;-87
2023/10/11 04:58:07;1089187.00;3.63;1891.10;166017.00;0.55;287.41;;;;;18.10;1.00;;;;;;2266464;61;1804;-87
2023/10/11 05:03:03;341208.00;1.14;588.75;78830.00;0.26;137.02;;;;;18.40;1.00;;;;;;1986607;40;3623;-87
2023/10/11 05:05:30;550613.00;1.84;949.02;145138.00;0.48;251.43;;;;;18.70;1.00;;;;;;2272855;61;1618;-86
2023/10/11 05:08:05;193479.00;0.64;334.70;0.00;0.00;0.62;;;;;18.90;1.00;;;;;;2272923;61;1715;-90
2023/10/11 05:10:43;150933.00;0.50;261.42;14195.00;0.05;25.22;;;;;18.70;1.00;;;;;;2272845;61;1734;-87
2023/10/11 05:15:42;598359.00;1.99;1031.39;64027.00;0.21;111.44;;;;;18.20;1.00;;;;;;2266233;61;1900;-87
2023/10/11 05:20:57;525131.00;1.75;905.10;0.00;0.00;0.62;;;;;16.70;1.00;;;;;;2270498;61;1430;-88
2023/10/11 05:23:41;63601.00;0.21;110.70;0.00;0.00;0.62;;;;;16.60;1.00;;;;;;2268726;61;1715;-88
2023/10/11 05:26:36;340307.00;1.13;587.20;71494.00;0.24;124.34;;;;;16.80;1.00;;;;;;2268836;61;1743;-87
2023/10/11 05:29:09;339603.00;1.13;585.99;80457.00;0.27;139.83;;;;;16.00;1.00;;;;;;2268743;61;1072;-88
2023/10/11 06:05:02;446777.00;1.49;770.24;0.00;0.00;0.62;;;;;16.30;1.00;;;;;;2293748;55;3637;-90
2023/10/11 06:10:06;631955.00;2.11;1089.43;0.00;0.00;0.62;;;;;16.40;1.00;;;;;;1969739;56;3613;-89
2023/10/11 06:12:33;209804.00;0.70;362.80;0.00;0.00;0.62;;;;;16.00;1.00;;;;;;2268489;61;1620;-88
2023/10/11 06:22:30;832580.00;2.78;1438.00;0.00;0.00;0.62;;;;;16.30;1.00;;;;;;2161529;56;3565;-89
2023/10/11 06:34:53;1161585.00;3.87;2020.92;0.00;0.00;0.62;;;;;17.20;1.00;;;;;;2283364;55;3797;-88
2023/10/11 06:37:24;1053911.00;3.51;1828.19;97382.00;0.32;169.05;;;;;17.30;1.00;;;;;;2355464;40;3573;-88
2023/10/11 06:42:33;507371.00;1.69;874.52;0.00;0.00;0.62;;;;;17.10;1.00;;;;;;2278796;40;3637;-87
2023/10/11 06:45:00;596542.00;1.99;1028.25;9309.00;0.03;16.75;;;;;17.00;1.00;;;;;;2272441;61;1668;-89
2023/10/11 06:47:33;855396.00;2.85;1477.91;8412.00;0.03;15.20;;;;;16.90;1.00;;;;;;2272464;61;1015;-88
2023/10/11 06:52:31;1204863.00;4.02;2099.01;19698.00;0.07;34.75;;;;;17.00;1.00;;;;;;2265818;61;1417;-87
2023/10/11 06:57:27;1476431.00;4.92;2598.85;67484.00;0.22;117.41;;;;;17.40;1.00;;;;;;2273588;55;3646;-86
2023/10/11 06:59:57;1371024.00;4.57;2402.69;136917.00;0.46;237.26;;;;;17.80;1.00;;;;;;2299783;40;3699;-89
2023/10/11 07:02:31;1480215.00;4.93;2605.95;144667.00;0.48;250.62;;;;;18.10;1.00;;;;;;2272484;61;1261;-87
2023/10/11 07:05:00;1320483.00;4.40;2309.64;214545.00;0.72;370.96;;;;;18.10;1.00;;;;;;2272411;61;1244;-87
2023/10/11 07:07:32;559590.00;1.87;964.49;120151.00;0.40;208.34;;;;;17.70;1.00;;;;;;2272445;61;1071;-87
2023/10/11 07:10:00;567423.00;1.89;978.00;111272.00;0.37;193.02;;;;;17.20;1.00;;;;;;2272579;61;1062;-89
2023/10/11 07:12:39;657988.00;2.19;1134.46;230964.00;0.77;399.21;;;;;16.80;1.00;;;;;;2272233;61;1617;-87
2023/10/11 07:15:08;472824.00;1.58;815.05;65035.00;0.22;113.18;;;;;16.60;1.00;;;;;;2272296;61;1930;-88
2023/10/11 07:17:35;662824.00;2.21;1142.83;143049.00;0.48;247.83;;;;;16.80;1.00;;;;;;2272373;61;1080;-87
2023/10/11 07:20:09;596512.00;1.99;1028.20;139428.00;0.46;241.58;;;;;17.30;1.00;;;;;;2272183;61;1574;-88
2023/10/11 07:25:36;739296.00;2.46;1275.45;107511.00;0.36;186.53;;;;;17.70;1.00;;;;;;2265810;61;1450;-89
2023/10/11 07:28:06;1131998.00;3.77;1967.74;167111.00;0.56;289.29;;;;;17.90;1.00;;;;;;2264348;61;1145;-88
2023/10/11 07:30:37;966881.00;3.22;1673.90;152431.00;0.51;264.00;;;;;18.30;1.00;;;;;;2264373;61;1111;-88
2023/10/11 07:33:05;1346050.00;4.49;2356.63;282680.00;0.94;488.15;;;;;18.30;1.00;;;;;;2260325;61;1114;-88
2023/10/11 07:35:33;411701.00;1.37;709.92;81718.00;0.27;142.00;;;;;18.50;1.00;;;;;;2260298;61;2002;-87
2023/10/11 07:38:01;538388.00;1.79;927.95;108242.00;0.36;187.80;;;;;18.60;1.00;;;;;;2260242;61;1031;-86
2023/10/11 07:40:34;351687.00;1.17;606.76;83432.00;0.28;144.97;;;;;18.80;1.00;;;;;;2260923;61;990;-86
2023/10/11 07:45:34;697456.00;2.32;1202.83;84238.00;0.28;146.36;;;;;19.70;1.00;;;;;;2270849;61;1458;-88
2023/10/11 07:48:03;325885.00;1.09;562.41;77341.00;0.26;134.44;;;;;20.00;1.00;;;;;;2269028;61;1248;-88
2023/10/11 07:50:32;1026826.00;3.42;1780.04;131231.00;0.44;227.45;;;;;20.30;1.00;;;;;;2269012;61;1607;-88
2023/10/11 07:52:59;513783.00;1.71;885.56;98797.00;0.33;171.50;;;;;20.60;1.00;;;;;;2265055;61;1689;-87
2023/10/11 07:55:26;446233.00;1.49;769.30;79903.00;0.27;138.87;;;;;21.00;1.00;;;;;;2264846;61;2006;-88
2023/10/11 07:57:59;317600.00;1.06;548.17;72049.00;0.24;125.30;;;;;21.40;1.00;;;;;;2264939;61;907;-89
2023/10/11 08:00:30;123464456.00;411.55;76245560.00;123065456.00;410.22;75508056.00;;;;;21.90;1.00;;;;;;2264998;61;1234;-89
2023/10/11 08:03:03;371178.00;1.24;640.26;78552.00;0.26;136.54;;;;;21.80;1.00;;;;;;2264938;61;1683;-88
2023/10/11 08:05:30;279671.00;0.93;482.97;78508.00;0.26;136.46;;;;;22.00;1.00;;;;;;2265015;61;1081;-90
2023/10/11 08:07:57;447249.00;1.49;771.05;56587.00;0.19;98.58;;;;;22.30;1.00;;;;;;2264873;61;1115;-89
2023/10/11 08:10:34;215630.00;0.72;372.82;0.00;0.00;0.62;;;;;22.30;1.00;;;;;;2265032;61;913;-89
2023/10/11 08:13:02;306711.00;1.02;529.46;75283.00;0.25;130.89;;;;;22.40;1.00;;;;;;2264961;61;1080;-88
2023/10/11 08:15:29;306684.00;1.02;529.41;24310.00;0.08;42.73;;;;;22.10;1.00;;;;;;2264889;61;1915;-89
2023/10/11 08:17:59;231061.00;0.77;399.37;0.00;0.00;0.62;;;;;21.80;1.00;;;;;;2264828;61;1275;-89
2023/10/11 08:20:28;204500.00;0.68;353.67;54233.00;0.18;94.51;;;;;21.90;1.00;;;;;;2264951;61;1146;-88
2023/10/11 08:22:57;513997.00;1.71;885.93;96195.00;0.32;167.00;;;;;22.00;1.00;;;;;;2264903;61;1621;-89
2023/10/11 08:25:30;44944.00;0.15;78.44;0.00;0.00;0.62;;;;;22.30;1.00;;;;;;2264920;61;1598;-89
2023/10/11 08:28:12;338294.00;1.13;583.74;28884.00;0.10;50.65;;;;;22.40;1.00;;;;;;2264869;61;1060;-89
2023/10/11 08:30:39;304245.00;1.01;525.22;87836.00;0.29;152.57;;;;;22.20;1.00;;;;;;2264822;61;2239;-88
2023/10/11 08:33:08;182195.00;0.61;315.27;0.00;0.00;0.62;;;;;22.00;1.00;;;;;;2264728;61;1634;-89
2023/10/11 08:35:35;428762.00;1.43;739.26;20968.00;0.07;36.95;;;;;22.00;1.00;;;;;;2264806;61;2004;-89
2023/10/11 08:38:04;523997.00;1.75;903.15;168068.00;0.56;290.94;;;;;21.90;1.00;;;;;;2264730;61;1038;-88
2023/10/11 08:40:35;90870.00;0.30;157.81;21735.00;0.07;38.27;;;;;21.90;1.00;;;;;;2264720;61;1596;-89
2023/10/11 08:43:02;720110.00;2.40;1242.13;252821.00;0.84;436.80;;;;;22.00;1.00;;;;;;2264812;61;1522;-89
2023/10/11 08:45:33;268184.00;0.89;463.22;23423.00;0.08;41.20;;;;;22.10;1.00;;;;;;2264659;61;1530;-89
2023/10/11 08:48:00;119152.00;0.40;206.62;0.00;0.00;0.62;;;;;22.40;1.00;;;;;;2264788;61;1279;-88
2023/10/11 08:50:34;300110.00;1.00;518.11;14677.00;0.05;26.05;;;;;22.30;1.00;;;;;;2264572;61;1025;-89
2023/10/11 08:53:02;134333.00;0.45;232.80;0.00;0.00;0.62;;;;;22.10;1.00;;;;;;2264703;61;1166;-87
2023/10/11 08:55:29;71727.00;0.24;124.74;0.00;0.00;0.62;;;;;22.30;1.00;;;;;;2264674;61;2013;-88
2023/10/11 08:57:56;610171.00;2.03;1051.79;138877.00;0.46;240.63;;;;;22.40;1.00;;;;;;2264670;61;1636;-89
2023/10/11 09:00:31;107921.00;0.36;187.24;0.00;0.00;0.62;;;;;22.50;1.00;;;;;;2264768;61;1107;-89
2023/10/11 09:02:58;650209.00;2.17;1121.00;27724.00;0.09;48.64;;;;;22.60;1.00;;;;;;2264662;61;1256;-88
2023/10/11 09:05:42;647503.00;2.16;1116.32;74203.00;0.25;129.02;;;;;22.80;1.00;;;;;;2264752;61;1757;-87
2023/10/11 09:08:21;826386.00;2.75;1427.18;137842.00;0.46;238.85;;;;;23.00;1.00;;;;;;2264680;61;1147;-88
2023/10/11 09:10:49;425689.00;1.42;733.97;0.00;0.00;0.62;;;;;23.00;1.00;;;;;;2264684;61;1290;-88
2023/10/11 09:13:26;276646.00;0.92;477.77;88562.00;0.30;153.82;;;;;23.20;1.00;;;;;;2264616;61;1197;-90
2023/10/11 09:15:55;263478.00;0.88;455.13;29462.00;0.10;51.65;;;;;23.60;1.00;;;;;;2264637;61;2006;-90
2023/10/11 09:18:25;303437.00;1.01;523.83;0.00;0.00;0.62;;;;;24.00;1.00;;;;;;2264580;61;1561;-88
2023/10/11 09:21:08;364022.00;1.21;627.96;32373.00;0.11;56.69;;;;;23.90;1.00;;;;;;2264556;61;1578;-90
2023/10/11 09:23:36;328461.00;1.09;566.84;85885.00;0.29;149.20;;;;;24.00;1.00;;;;;;2264815;61;1107;-88
2023/10/11 09:26:05;468484.00;1.56;807.58;96194.00;0.32;167.00;;;;;23.80;1.00;;;;;;2264631;61;919;-88
2023/10/11 09:31:11;653245.00;2.18;1126.25;99668.00;0.33;173.00;;;;;23.70;1.00;;;;;;2266406;61;1373;-88
2023/10/11 09:33:40;303096.00;1.01;523.24;29501.00;0.10;51.72;;;;;24.00;1.00;;;;;;2264694;61;2270;-88
2023/10/11 09:36:12;87699.00;0.29;152.33;0.00;0.00;0.62;;;;;24.30;1.00;;;;;;2264524;61;2009;-88
2023/10/11 09:38:42;176795.00;0.59;305.97;22682.00;0.08;39.91;;;;;24.40;1.00;;;;;;2264563;61;1722;-89
2023/10/11 09:41:10;259579.00;0.87;448.42;0.00;0.00;0.62;;;;;24.50;1.00;;;;;;2264605;61;2156;-88
2023/10/11 09:43:42;413507.00;1.38;713.03;57004.00;0.19;99.30;;;;;24.60;1.00;;;;;;2264715;61;1144;-87
2023/10/11 09:46:12;506270.00;1.69;872.62;0.00;0.00;0.62;;;;;24.70;1.00;;;;;;2264759;61;1218;-87
2023/10/11 09:48:40;137207.00;0.46;237.76;0.00;0.00;0.62;;;;;24.80;1.00;;;;;;2264644;61;1083;-87
2023/10/11 09:51:13;542011.00;1.81;934.19;12893.00;0.04;22.96;;;;;24.50;1.00;;;;;;2264365;61;1745;-88
2023/10/11 09:53:42;128019.00;0.43;221.91;62473.00;0.21;108.75;;;;;24.40;1.00;;;;;;2264570;61;1579;-89
2023/10/11 09:56:31;401710.00;1.34;692.74;61132.00;0.20;106.43;;;;;24.70;1.00;;;;;;2264601;61;2000;-88
2023/10/11 09:59:10;538916.00;1.80;928.86;121455.00;0.40;210.59;;;;;24.90;1.00;;;;;;2264692;61;979;-87
2023/10/11 10:01:43;262014.00;0.87;452.61;0.00;0.00;0.62;;;;;25.00;1.00;;;;;;2264512;61;1538;-88
2023/10/11 10:04:12;359083.00;1.20;619.47;0.00;0.00;0.62;;;;;25.10;1.00;;;;;;2264625;61;1128;-89
2023/10/11 10:07:13;202709.00;0.68;350.59;0.00;0.00;0.62;;;;;25.20;1.00;;;;;;2264522;61;1064;-88
2023/10/11 10:09:52;317422.00;1.06;547.87;49917.00;0.17;87.04;;;;;25.40;1.00;;;;;;2264557;61;991;-88
2023/10/11 10:12:21;116132.00;0.39;201.41;0.00;0.00;0.62;;;;;25.60;1.00;;;;;;2264547;61;1292;-88
2023/10/11 10:14:53;357494.00;1.19;616.74;31577.00;0.11;55.31;;;;;25.80;1.00;;;;;;2264596;61;2118;-88
2023/10/11 10:17:20;122050216.00;406.83;73652984.00;0.00;0.00;0.62;;;;;25.70;1.00;;;;;;2264451;61;2006;-87
2023/10/11 10:19:48;269002.00;0.90;464.63;0.00;0.00;0.62;;;;;25.60;1.00;;;;;;2264513;61;1644;-88
2023/10/11 10:22:19;565597.00;1.89;974.85;82305.00;0.27;143.02;;;;;25.60;1.00;;;;;;2264516;61;1335;-88
2023/10/11 10:24:48;204502.00;0.68;353.67;0.00;0.00;0.62;;;;;25.60;1.00;;;;;;2264500;61;1626;-87
2023/10/11 10:27:37;372429.00;1.24;642.41;0.00;0.00;0.62;;;;;25.90;1.00;;;;;;2264586;61;930;-88
2023/10/11 10:30:06;1218880.00;4.06;2124.39;100420.00;0.33;174.30;;;;;26.20;1.00;;;;;;2264500;61;1747;-88
2023/10/11 10:32:33;1144621.00;3.82;1990.41;91179.00;0.30;158.34;;;;;26.30;1.00;;;;;;2264534;61;1398;-88
2023/10/11 10:35:27;680621.00;2.27;1173.65;126296.00;0.42;218.94;;;;;26.70;1.00;;;;;;2264142;61;1051;-86
2023/10/11 10:37:57;1102081.00;3.67;1914.15;107730.00;0.36;186.91;;;;;26.50;1.00;;;;;;2264493;61;1927;-87
2023/10/11 10:40:25;1178561.00;3.93;2051.51;243433.00;0.81;420.66;;;;;26.50;1.00;;;;;;2264543;61;1270;-87
2023/10/11 10:43:14;856761.00;2.86;1480.30;96401.00;0.32;167.36;;;;;26.50;1.00;;;;;;2264396;61;1224;-88
2023/10/11 10:45:41;713939.00;2.38;1231.42;59301.00;0.20;103.27;;;;;26.80;1.00;;;;;;2264491;61;1321;-86
2023/10/11 10:48:14;1018548.00;3.40;1765.35;191557.00;0.64;331.39;;;;;27.00;1.00;;;;;;2264386;61;1237;-88
2023/10/11 10:50:52;738271.00;2.46;1273.67;96806.00;0.32;168.06;;;;;26.80;1.00;;;;;;2264376;61;1513;-87
2023/10/11 10:53:21;155455.00;0.52;269.21;0.00;0.00;0.62;;;;;26.80;1.00;;;;;;2264491;61;997;-88
2023/10/11 10:55:47;339347.00;1.13;585.55;3187.00;0.01;6.14;;;;;26.60;1.00;;;;;;2264429;61;2006;-88
2023/10/11 10:58:18;517835.00;1.73;892.54;0.00;0.00;0.62;;;;;26.80;1.00;;;;;;2264341;61;1138;-88
2023/10/11 11:00:47;245014.00;0.82;423.38;36507.00;0.12;63.84;;;;;26.80;1.00;;;;;;2264392;61;1431;-86
2023/10/11 11:03:21;231933.00;0.77;400.87;0.00;0.00;0.62;;;;;26.90;1.00;;;;;;2264312;61;1032;-88
2023/10/11 11:05:57;340690.00;1.14;587.86;0.00;0.00;0.62;;;;;27.10;1.00;;;;;;2264424;61;1467;-87
2023/10/11 11:08:31;594925.00;1.98;1025.46;5410.00;0.02;10.00;;;;;27.10;1.00;;;;;;2264423;61;1668;-88
2023/10/11 11:11:18;30936.00;0.10;54.20;0.00;0.00;0.62;;;;;27.30;1.00;;;;;;2264373;61;1752;-89
2023/10/11 11:13:47;189298.00;0.63;327.50;22017.00;0.07;38.76;;;;;27.40;1.00;;;;;;2264086;61;1522;-88
2023/10/11 11:16:16;767759.00;2.56;1324.95;60937.00;0.20;106.10;;;;;27.00;1.00;;;;;;2264125;61;1910;-88
2023/10/11 11:18:44;799218.00;2.66;1379.76;84072.00;0.28;146.07;;;;;26.80;1.00;;;;;;2264268;61;1031;-86
2023/10/11 11:21:19;750321.00;2.50;1294.62;78738.00;0.26;136.86;;;;;26.70;1.00;;;;;;2264144;61;1381;-87
2023/10/11 11:23:50;878252.00;2.93;1517.95;247881.00;0.83;428.31;;;;;27.00;1.00;;;;;;2264204;61;1595;-87
2023/10/11 11:26:17;325568.00;1.09;561.87;38414.00;0.13;67.14;;;;;27.50;1.00;;;;;;2264342;61;981;-87
2023/10/11 11:28:45;453363.00;1.51;781.57;79489.00;0.26;138.15;;;;;27.40;1.00;;;;;;2264196;61;1577;-87
2023/10/11 11:31:13;387488.00;1.29;668.30;0.00;0.00;0.62;;;;;27.20;1.00;;;;;;2264107;61;1425;-89
2023/10/11 11:34:05;364283.00;1.21;628.41;50705.00;0.17;88.41;;;;;27.20;1.00;;;;;;2264367;61;898;-88
2023/10/11 11:36:32;1280458.00;4.27;2236.39;158407.00;0.53;274.29;;;;;27.10;1.00;;;;;;2264151;61;2010;-89
2023/10/11 11:39:17;1009068.00;3.36;1748.54;122473.00;0.41;212.35;;;;;27.20;1.00;;;;;;2264230;61;1004;-89
2023/10/11 11:41:47;801419.00;2.67;1383.60;123934.00;0.41;214.87;;;;;27.40;1.00;;;;;;2264312;61;1463;-89
2023/10/11 11:44:19;1286403.00;4.29;2247.24;207641.00;0.69;359.08;;;;;27.30;1.00;;;;;;2264336;61;1013;-88
2023/10/11 11:46:49;977048.00;3.26;1691.86;167264.00;0.56;289.55;;;;;27.20;1.00;;;;;;2264325;61;1201;-88
2023/10/11 11:49:20;1192861.00;3.98;2077.32;297546.00;0.99;513.70;;;;;27.60;1.00;;;;;;2264197;61;1111;-90
2023/10/11 11:51:47;1051422.00;3.50;1823.76;155103.00;0.52;268.60;;;;;27.80;1.00;;;;;;2300568;40;3689;-89
2023/10/11 11:59:21;981570.00;3.27;1699.86;137028.00;0.46;237.45;;;;;28.10;1.00;;;;;;2269816;61;1318;-86
2023/10/11 12:01:49;432838.00;1.44;746.27;91146.00;0.30;158.29;;;;;27.80;1.00;;;;;;2268196;61;1328;-88
2023/10/11 12:04:21;295847.00;0.99;510.78;42693.00;0.14;74.55;;;;;27.90;1.00;;;;;;2268221;61;1037;-87
2023/10/11 12:06:47;503334.00;1.68;867.56;32360.00;0.11;56.67;;;;;27.50;1.00;;;;;;2268242;61;1123;-89
2023/10/11 12:09:20;1204967.00;4.02;2099.20;64057.00;0.21;111.49;;;;;27.20;1.00;;;;;;2267838;61;1050;-89
2023/10/11 12:11:50;442912.00;1.48;763.59;54733.00;0.18;95.37;;;;;27.50;1.00;;;;;;2268142;61;1779;-86
2023/10/11 12:14:22;658349.00;2.19;1135.08;82556.00;0.28;143.45;;;;;27.70;1.00;;;;;;2268131;61;1080;-88
2023/10/11 12:16:50;308512.00;1.03;532.55;9399.00;0.03;16.91;;;;;27.90;1.00;;;;;;2268137;61;2011;-90
2023/10/11 12:19:17;893464.00;2.98;1544.64;156507.00;0.52;271.02;;;;;27.70;1.00;;;;;;2268172;61;962;-88
2023/10/11 12:21:44;997108.00;3.32;1727.35;110568.00;0.37;191.81;;;;;27.80;1.00;;;;;;2268078;61;1560;-90
2023/10/11 12:26:43;2098977.00;7.00;3829.58;258031.00;0.86;445.76;;;;;28.30;1.00;;;;;;2282786;55;3693;-88
2023/10/11 12:29:12;688324.00;2.29;1187.00;75494.00;0.25;131.25;;;;;28.10;1.00;;;;;;2272795;61;1435;-90
2023/10/11 12:31:41;643463.00;2.14;1109.33;100349.00;0.33;174.17;;;;;28.20;1.00;;;;;;2272769;61;1359;-88
2023/10/11 12:34:09;830544.00;2.77;1434.45;19082.00;0.06;33.68;;;;;28.50;1.00;;;;;;2272833;61;957;-88
2023/10/11 12:36:39;827434.00;2.76;1429.01;104262.00;0.35;180.93;;;;;28.50;1.00;;;;;;2272675;61;2012;-89
2023/10/11 12:39:08;724448.00;2.41;1249.66;65840.00;0.22;114.57;;;;;28.20;1.00;;;;;;2272638;61;1737;-88
2023/10/11 12:41:36;1190011.00;3.97;2072.17;175048.00;0.58;302.96;;;;;28.20;1.00;;;;;;2272739;61;1338;-89
2023/10/11 12:44:04;1441368.00;4.80;2533.27;168921.00;0.56;292.41;;;;;28.20;1.00;;;;;;2272617;61;1132;-90
2023/10/11 12:49:12;1751301.00;5.84;3125.54;94880.00;0.32;164.73;;;;;28.60;1.00;;;;;;2300695;41;3592;-91
2023/10/11 12:51:44;1113030.00;3.71;1933.74;150540.00;0.50;260.74;;;;;28.70;1.00;;;;;;2272703;55;3721;-89
2023/10/11 12:54:11;1134151.00;3.78;1971.61;177405.00;0.59;307.02;;;;;28.20;1.00;;;;;;2268395;61;1797;-89
2023/10/11 12:59:12;1721972.00;5.74;3068.20;95719.00;0.32;166.18;;;;;28.20;1.00;;;;;;2266281;61;1344;-89
2023/10/11 13:11:46;1687573.00;5.63;3001.30;84385.00;0.28;146.61;;;;;28.70;1.00;;;;;;2270191;61;1342;-90
2023/10/11 13:14:18;984935.00;3.28;1705.81;78345.00;0.26;136.18;;;;;28.60;1.00;;;;;;2268436;61;918;-90
2023/10/11 13:16:47;1067314.00;3.56;1852.07;210795.00;0.70;364.50;;;;;28.50;1.00;;;;;;2273034;55;3773;-90
2023/10/11 13:21:44;1311943.00;4.37;2293.98;96144.00;0.32;166.92;;;;;28.40;1.00;;;;;;2294425;40;3680;-89
2023/10/11 13:24:12;1059583.00;3.53;1838.29;138202.00;0.46;239.47;;;;;28.60;1.00;;;;;;2310084;40;3638;-91
2023/10/11 13:26:43;1740009.00;5.80;3103.43;192963.00;0.64;333.81;;;;;28.90;1.00;;;;;;2272584;61;1301;-88